Tiempo atmosférico en la estación meteorológica de Cuéllar, Segovia (795 m.)



Fecha
DESCASC
Temp. máxima en grados centígrados (hora)
DESCASC
Temp. mínima en grados centígrados (hora)
DESCASC
Temp. media en grados centígrados
DESCASC
Racha de viento máxima en m/sg (hora)
DESCASC
Velocidad máxima media en intervalos de 10 minutos(hora)
DESCASC
Precipitaciones diarias en mm
DESCASC
Precipitaciones de 00:00 a 06:00 en mm
DESCASC
Precipitaciones de 06:00 a 12:00 en mm
DESCASC
Precipitaciones de 12:00 a 18:00 en mm
DESCASC
Precipitaciones de 18:00 a 24:00 en mm
DESCASC
08-12-2019 8.7 (21:30) -4.8 (07:10) 1.9 3.33 (13:50) 1.39 (14:00) 1 0 0 1 0
07-12-2019 14.2 (16:00) -4.2 (06:50) 5 3.61 (14:50) 2.22 (14:40) 0 0 0 0 0
06-12-2019 14.3 (14:00) -3.5 (05:40) 5.4 3.61 (17:20) 2.78 (17:20) 0 0 0 0 0
05-12-2019 13.4 (15:40) 2.6 (00:00) 8 11.94 (01:30) 8.33 (01:30) 0 0 0 0 0
04-12-2019 10.9 (14:50) -2.8 (08:50) 4 10.28 (16:30) 8.06 (16:30) 0 0 0 0 0
03-12-2019 8.6 (15:50) -3.3 (-00:0) 2.7 9.72 (01:20) 7.22 (01:40) 0 0 0 0 0
02-12-2019 10.5 (12:30) 1 (00:00) 5.8 14.72 (17:20) 10.56 (17:20) 0 0 0 0 0
01-12-2019 7.7 (13:50) 0 (00:00) 3.8 8.89 (23:00) 6.94 (23:00) 4 0.4 2.4 0.8 0.4
30-11-2019 14.6 (13:10) 2 (00:00) 8.3 14.17 (15:30) 8.06 (15:40) 9 1.2 0 7.6 0.2
29-11-2019 14.4 (16:20) 7.4 (00:00) 10.9 6.11 (00:10) 3.33 (00:10) 7 3.4 0.2 0 3.4
28-11-2019 12.8 (13:30) 8.8 (06:40) 10.8 11.39 (12:40) 6.11 (13:20) 0 0 0 0 0
27-11-2019 12.5 (13:00) 6.9 (00:00) 9.7 12.22 (00:50) 6.67 (15:40) 0 0 0 0 0
26-11-2019 15.6 (12:40) 6.3 (00:00) 11 13.06 (23:30) 6.67 (19:00) 3.6 0 0.8 0.6 2.2
25-11-2019 14 (14:30) 7.4 (00:00) 10.7 11.39 (02:50) 5.83 (14:30) 2.8 2.8 0 0 0
24-11-2019 8.9 (14:00) 1.1 (00:00) 5 7.78 (16:10) 3.89 (15:50) 1.4 0 0 0 1.4
23-11-2019 10.7 (16:20) 1.1 (00:00) 5.9 14.44 (00:40) 7.5 (12:00) 2.2 2.2 0 0 0
22-11-2019 13 (16:10) 4.1 (00:00) 8.5 15.28 (16:20) 8.33 (16:20) 7.2 1 2.2 3.8 0.2
21-11-2019 10.9 (15:30) 2.2 (00:00) 6.5 12.22 (12:20) 5 (12:20) 4.2 0.2 2.8 1.2 0
20-11-2019 7.2 (12:50) -0.7 (04:50) 3.2 3.89 (15:10) 1.94 (05:30) 3 0 0 2.8 0.2
19-11-2019 8.7 (14:20) -4.8 (-00:0) 1.9 3.61 (12:20) 2.22 (14:30) 0.2 0 0.2 0 0
18-11-2019 7.6 (14:50) -3.3 (-00:0) 2.1 3.61 (13:20) 1.67 (13:20) 0 0 0 0 0
17-11-2019 9.6 (16:30) -1.3 (-00:0) 4.2 8.61 (16:10) 4.72 (16:30) 6.2 0 4.4 1.8 0
16-11-2019 8.1 (16:20) -5.6 (-00:0) 1.3 7.78 (17:00) 4.72 (17:00) 0 0 0 0 0
15-11-2019 8.3 (15:30) 0.4 (00:00) 4.4 11.11 (00:50) 6.39 (01:00) 0.4 0.2 0.2 0 0
14-11-2019 8.1 (00:00) 2.4 (00:00) 5.3 14.44 (05:00) 8.61 (18:50) 7.4 4 0.2 2.8 0.4
13-11-2019 14.2 (13:00) 7.3 (00:00) 10.8 12.78 (07:40) 8.61 (07:50) 9.2 9.2 0 0 0
12-11-2019 10.3 (13:30) -2 (-00:0) 4.2 10.56 (22:00) 4.72 (20:50) 7.2 0 0 0 7.2
11-11-2019 11.4 (16:00) -1.9 (00:40) 4.7 7.22 (17:00) 5.28 (16:50) 0.8 0 0.6 0.2 0
10-11-2019 7.1 (16:00) -1.4 (-00:0) 2.8 9.44 (16:50) 6.67 (17:00) 0.2 0 0 0.2 0

Gráficas

Temp. máximas Temp. mínimas Temp. medias Precipitaciones Rachas de viento máximas Velocidades máximas media en intervalos de 10 minutos

Datos horarios

Fecha y hora oficial Temperatura (ºC) Velocidad del viento (km/h) Dirección del viento Racha (km/h) Dirección de racha Precipitación (mm) Presión (hPa) Tendencia (hPa) Humedad (%)
2019-12-09 23:00:00 -2.8 0 Calma 8 Este 0 -- -- 100
2019-12-09 22:00:00 -1.9 2 Este 5 Nordeste 0 -- -- 99
2019-12-09 21:00:00 -1.6 3 Sudeste 5 Nordeste 0 -- -- 98
2019-12-09 20:00:00 -0.1 5 Sudeste 8 Este 0 -- -- 99
2019-12-09 19:00:00 2.2 3 Nordeste 8 Nordeste 0 -- -- 98
2019-12-09 18:00:00 3.5 3 Este 6 Sudeste 0 -- -- 93
2019-12-09 17:00:00 7.4 3 Oeste 5 Sudoeste 0 -- -- 83
2019-12-09 16:00:00 8.7 4 Oeste 10 Sudoeste 0 -- -- 75
2019-12-09 15:00:00 9.4 4 Sudoeste 13 Sur 0 -- -- 72
2019-12-09 14:00:00 10.2 5 Oeste 14 Oeste 0 -- -- 71
2019-12-09 13:00:00 8.7 8 Oeste 16 Sudoeste 0 -- -- 78
2019-12-09 12:00:00 5.2 10 Oeste 22 Sur 0 -- -- 91
2019-12-09 11:00:00 5.2 13 Sudoeste 23 Sudoeste 0 -- -- 94
2019-12-09 10:00:00 5.6 10 Sudoeste 21 Sudoeste 0 -- -- 98
2019-12-09 09:00:00 5.6 9 Sudoeste 15 Sudoeste 0.2 -- -- 100
2019-12-09 08:00:00 5.5 9 Sudoeste 19 Oeste 0 -- -- 100
2019-12-09 07:00:00 5.9 8 Sudoeste 15 Oeste 0 -- -- 100
2019-12-09 06:00:00 4.9 3 Sudoeste 4 Sudoeste 0 -- -- 100
2019-12-09 05:00:00 3.5 0 Calma 6 Oeste 0 -- -- 100
2019-12-09 04:00:00 5.6 4 Oeste 11 Oeste 0 -- -- 99
2019-12-09 03:00:00 6.9 6 Oeste 14 Oeste 0 -- -- 99
2019-12-09 02:00:00 7.6 5 Sudoeste 12 Sudoeste 0 -- -- 100
2019-12-09 01:00:00 8 6 Oeste 14 Oeste 0 -- -- 100
2019-12-09 00:00:00 8 2 Oeste 6 Sudoeste 0 -- -- 100
2019-12-08 23:00:00 7.9 0 Calma 5 Oeste 0 -- -- 100
2019-12-08 22:00:00 8.6 3 Oeste 9 Noroeste 0 -- -- 100
2019-12-08 21:00:00 7.9 4 Oeste 7 Sudoeste 0 -- -- 100
2019-12-08 20:00:00 8 2 Oeste 6 Oeste 0 -- -- 100
2019-12-08 19:00:00 7.6 0 Calma 4 Oeste 0 -- -- 100
2019-12-08 18:00:00 7.5 0 Calma 5 Oeste 0.2 -- -- 100
2019-12-08 17:00:00 7.6 3 Noroeste 4 Noroeste 0 -- -- 99
2019-12-08 16:00:00 7.5 2 Oeste 6 Oeste 0.4 -- -- 98
2019-12-08 15:00:00 7.3 4 Oeste 8 Sur 0 -- -- 98
2019-12-08 14:00:00 6.7 5 Sudoeste 12 Sudoeste 0.2 -- -- 98
2019-12-08 13:00:00 6.3 3 Noroeste 5 Oeste 0.2 -- -- 99
2019-12-08 12:00:00 5 2 Oeste 5 Sudoeste 0 -- -- 98
2019-12-08 11:00:00 3.4 0 Calma 3 Este 0 -- -- 99
2019-12-08 10:00:00 0.4 0 Calma 3 Este 0 -- -- 99
2019-12-08 09:00:00 -1 0 Calma 4 Este 0 -- -- 98
2019-12-08 08:00:00 -4.6 3 Este 4 Sudeste 0 -- -- 99
2019-12-08 07:00:00 -4.3 3 Sudeste 4 Sudeste 0 -- -- 98
2019-12-08 06:00:00 -3.8 0 Calma 4 Este 0 -- -- 100
2019-12-08 05:00:00 -3.9 0 Calma 5 Este 0 -- -- 100
2019-12-08 04:00:00 -3.6 3 Este 4 Este 0 -- -- 100
2019-12-08 03:00:00 -3.7 3 Sudeste 4 Sudeste 0 -- -- 99
2019-12-08 02:00:00 -2.7 2 Este 5 Este 0 -- -- 100
2019-12-08 01:00:00 -3.2 3 Sudeste 4 Este 0 -- -- 99
2019-12-08 00:00:00 -2.8 4 Este 5 Sudeste 0 -- -- 100
2019-12-07 23:00:00 -1.1 0 Calma 6 Este 0 -- -- 99
2019-12-07 22:00:00 -1.3 4 Este 5 Este 0 -- -- 98
2019-12-07 21:00:00 -0.4 -- -- -- -- 0 -- -- 99
2019-12-07 20:00:00 0.9 0 Calma 3 Este 0 -- -- 96
2019-12-07 19:00:00 4 3 Sudoeste 9 Noroeste 0 -- -- 86
2019-12-07 18:00:00 7.7 5 Oeste 7 Oeste 0 -- -- 84
2019-12-07 17:00:00 13.1 3 Sudoeste 8 Oeste 0 -- -- 62
2019-12-07 16:00:00 14.2 3 Oeste 12 Oeste 0 -- -- 57
2019-12-07 15:00:00 13.2 6 Oeste 13 Oeste 0 -- -- 58
2019-12-07 14:00:00 13.4 4 Oeste 9 Oeste 0 -- -- 59
2019-12-07 13:00:00 12.8 2 Sur 6 Sur 0 -- -- 62
2019-12-07 12:00:00 10.3 2 Sur 5 Este 0 -- -- 71
2019-12-07 11:00:00 6.9 2 Este 8 Este 0 -- -- 81
2019-12-07 10:00:00 2.2 4 Este 8 Nordeste 0 -- -- 94
2019-12-07 09:00:00 -3.1 4 Este 5 Este 0 -- -- 98
2019-12-07 08:00:00 -3.6 2 Este 5 Este 0 -- -- 100
2019-12-07 07:00:00 -4 0 Calma 4 Este 0 -- -- 100
2019-12-07 06:00:00 -3.7 0 Calma 4 Este 0 -- -- 99
2019-12-07 05:00:00 -3.7 3 Este 6 Este 0 -- -- 99
2019-12-07 04:00:00 -3.7 2 Este 5 Sudeste 0 -- -- 99
2019-12-07 03:00:00 -2.6 0 Calma 7 Este 0 -- -- 99
2019-12-07 02:00:00 -3.6 6 Sudeste 8 Este 0 -- -- 99
2019-12-07 01:00:00 -2.5 0 Calma 6 Sudeste 0 -- -- 100
2019-12-07 00:00:00 -2.1 4 Sudeste 6 Este 0 -- -- 99
2019-12-06 23:00:00 -1.3 2 Este 5 Este 0 -- -- 100
2019-12-06 22:00:00 -1.7 5 Sudeste 6 Este 0 -- -- 98
2019-12-06 21:00:00 -0.2 2 Este 6 Sudeste 0 -- -- 98
2019-12-06 20:00:00 1 4 Este 7 Nordeste 0 -- -- 96
2019-12-06 19:00:00 5.3 0 Calma 9 Norte 0 -- -- 88
2019-12-06 18:00:00 7.4 8 Norte 13 Norte 0 -- -- 81
2019-12-06 17:00:00 11.5 8 Noroeste 12 Noroeste 0 -- -- 67
2019-12-06 16:00:00 13.4 5 Oeste 12 Oeste 0 -- -- 61
2019-12-06 15:00:00 13.3 5 Oeste 13 Oeste 0 -- -- 61
2019-12-06 14:00:00 14.3 4 Nordeste 8 Norte 0 -- -- 56
2019-12-06 13:00:00 12.9 3 Oeste 6 Oeste 0 -- -- 63
2019-12-06 12:00:00 10.4 0 Calma 6 Oeste 0 -- -- 71
2019-12-06 11:00:00 7.4 0 Calma 9 Este 0 -- -- 79
2019-12-06 10:00:00 2.4 2 Sudeste 4 Este 0 -- -- 94
2019-12-06 09:00:00 -1.2 0 Calma 8 Este 0 -- -- 98
2019-12-06 08:00:00 -3 4 Este 5 Este 0 -- -- 100
2019-12-06 07:00:00 -2.9 3 Este 6 Este 0 -- -- 99
2019-12-06 06:00:00 -2.7 3 Sudeste 10 Este 0 -- -- 99
2019-12-06 05:00:00 -1.7 3 Norte 7 Este 0 -- -- 100
2019-12-06 04:00:00 -1.8 6 Este 9 Nordeste 0 -- -- 98
2019-12-06 03:00:00 -1 2 Norte 5 Sudoeste 0 -- -- 99
2019-12-06 02:00:00 0.5 3 Oeste 4 Oeste 0 -- -- 98
2019-12-06 01:00:00 2.1 4 Sudeste 9 Este 0 -- -- 94
2019-12-06 00:00:00 3.5 9 Nordeste 24 Nordeste 0 -- -- 91
2019-12-05 23:00:00 4.1 19 Nordeste 29 Norte 0 -- -- 89
2019-12-05 22:00:00 4.8 24 Norte 32 Norte 0 -- -- 87
2019-12-05 21:00:00 4.9 22 Norte 29 Norte 0 -- -- 87
2019-12-05 20:00:00 5.7 23 Norte 33 Norte 0 -- -- 85
2019-12-05 19:00:00 6.8 25 Norte 33 Norte 0 -- -- 82
2019-12-05 18:00:00 7.9 17 Norte 23 Nordeste 0 -- -- 81
2019-12-05 17:00:00 11.1 19 Norte 31 Nordeste 0 -- -- 69
2019-12-05 16:00:00 12.7 19 Norte 30 Nordeste 0 -- -- 65
2019-12-05 15:00:00 10.6 21 Nordeste 30 Nordeste 0 -- -- 66
2019-12-05 14:00:00 12 19 Nordeste 35 Nordeste 0 -- -- 63
2019-12-05 13:00:00 11.2 19 Nordeste 30 Nordeste 0 -- -- 65
2019-12-05 12:00:00 10.1 26 Nordeste 37 Nordeste 0 -- -- 71
2019-12-05 11:00:00 8.7 24 Norte 32 Norte 0 -- -- 76
2019-12-05 10:00:00 7.4 20 Norte 27 Norte 0 -- -- 82
2019-12-05 09:00:00 4.8 15 Nordeste 33 Nordeste 0 -- -- 91
2019-12-05 08:00:00 4 13 Nordeste 21 Nordeste 0 -- -- 93
2019-12-05 07:00:00 4.3 11 Norte 17 Norte 0 -- -- 93
2019-12-05 06:00:00 3.3 5 Nordeste 8 Nordeste 0 -- -- 94
2019-12-05 05:00:00 3.4 7 Este 24 Nordeste 0 -- -- 89
2019-12-05 04:00:00 4.4 15 Nordeste 35 Norte 0 -- -- 88
2019-12-05 03:00:00 4.7 22 Norte 36 Norte 0 -- -- 88
2019-12-05 02:00:00 5.4 27 Nordeste 43 Norte 0 -- -- 87
2019-12-05 01:00:00 4.7 27 Norte 38 Nordeste 0 -- -- 86
2019-12-05 00:00:00 3.6 21 Norte 32 Norte 0 -- -- 86
2019-12-04 23:00:00 3.7 21 Norte 36 Norte 0 -- -- 81
2019-12-04 22:00:00 4.9 13 Norte 28 Norte 0 -- -- 84
2019-12-04 21:00:00 6.7 21 Norte 29 Norte 0 -- -- 79
2019-12-04 20:00:00 7.4 19 Norte 31 Norte 0 -- -- 79
2019-12-04 19:00:00 7.6 15 Norte 26 Norte 0 -- -- 81
2019-12-04 18:00:00 7.9 15 Norte 26 Norte 0 -- -- 80
2019-12-04 17:00:00 9.3 21 Norte 37 Norte 0 -- -- 77
2019-12-04 16:00:00 9.7 13 Norte 28 Norte 0 -- -- 73
2019-12-04 15:00:00 10.1 22 Norte 31 Norte 0 -- -- 68
2019-12-04 14:00:00 8.8 20 Nordeste 25 Norte 0 -- -- 79
2019-12-04 13:00:00 9.2 5 Norte 14 Nordeste 0 -- -- 78
2019-12-04 12:00:00 5.7 3 Sudoeste 8 Sudoeste 0 -- -- 82
2019-12-04 11:00:00 2.4 3 Sudoeste 5 Noroeste 0 -- -- 89
2019-12-04 10:00:00 0.3 2 Sudeste 2 Sudeste 0 -- -- 97
2019-12-04 09:00:00 -2.5 0 Calma 5 Norte 0 -- -- 99
2019-12-04 08:00:00 -1.8 3 Sudoeste 19 Este 0 -- -- 96
2019-12-04 07:00:00 0.6 5 Sudeste 17 Norte 0 -- -- 95
2019-12-04 06:00:00 0.5 7 Nordeste 18 Norte 0 -- -- 93
2019-12-04 05:00:00 1.1 13 Nordeste 19 Norte 0 -- -- 93
2019-12-04 04:00:00 0.4 5 Este 17 Nordeste 0 -- -- 92
2019-12-04 03:00:00 1.1 7 Nordeste 17 Norte 0 -- -- 92
2019-12-04 02:00:00 0.6 2 Nordeste 10 Este 0 -- -- 92
2019-12-04 01:00:00 0.8 10 Este 18 Este 0 -- -- 90
2019-12-04 00:00:00 0.6 10 Este 18 Nordeste 0 -- -- 92
2019-12-03 23:00:00 -1 7 Nordeste 14 Este 0 -- -- 98
2019-12-03 22:00:00 -0.5 7 Nordeste 18 Nordeste 0 -- -- 91
2019-12-03 21:00:00 -0.2 6 Nordeste 12 Nordeste 0 -- -- 93
2019-12-03 20:00:00 1.1 10 Nordeste 13 Nordeste 0 -- -- 90
2019-12-03 19:00:00 2.1 8 Nordeste 18 Nordeste 0 -- -- 87
2019-12-03 18:00:00 3.6 13 Norte 16 Nordeste 0 -- -- 83
2019-12-03 17:00:00 7.5 12 Nordeste 18 Nordeste 0 -- -- 65
2019-12-03 16:00:00 8.5 11 Nordeste 17 Nordeste 0 -- -- 61
2019-12-03 15:00:00 8.4 7 Nordeste 16 Nordeste 0 -- -- 61
2019-12-03 14:00:00 7.6 11 Nordeste 21 Nordeste 0 -- -- 62
2019-12-03 13:00:00 6.5 12 Nordeste 19 Nordeste 0 -- -- 66
2019-12-03 12:00:00 6.3 5 Nordeste 11 Este 0 -- -- 67
2019-12-03 11:00:00 3.3 6 Este 10 Este 0 -- -- 76
2019-12-03 10:00:00 1.3 4 Este 13 Este 0 -- -- 86
2019-12-03 09:00:00 -1.5 6 Este 9 Este 0 -- -- 94
2019-12-03 08:00:00 -2.7 5 Este 10 Nordeste 0 -- -- 96
2019-12-03 07:00:00 -2.1 5 Nordeste 12 Nordeste 0 -- -- 97
2019-12-03 06:00:00 -0.6 8 Nordeste 14 Norte 0 -- -- 93
2019-12-03 05:00:00 -0.1 8 Nordeste 16 Nordeste 0 -- -- 90
2019-12-03 04:00:00 0.3 9 Nordeste 30 Nordeste 0 -- -- 90
2019-12-03 03:00:00 0.8 21 Norte 34 Norte 0 -- -- 89
2019-12-03 02:00:00 1.1 25 Norte 35 Norte 0 -- -- 87
2019-12-03 01:00:00 1.2 24 Norte 33 Norte 0 -- -- 87
2019-12-03 00:00:00 1.2 23 Norte 31 Norte 0 -- -- 88
2019-12-02 23:00:00 1.1 21 Norte 32 Norte 0 -- -- 85
2019-12-02 22:00:00 1.8 23 Norte 39 Norte 0 -- -- 84
2019-12-02 21:00:00 2.5 23 Norte 35 Nordeste 0 -- -- 86
2019-12-02 20:00:00 3.3 27 Nordeste 39 Norte 0 -- -- 83
2019-12-02 19:00:00 4.3 32 Norte 44 Norte 0 -- -- 86
2019-12-02 18:00:00 5.5 28 Norte 53 Nordeste 0 -- -- 82
2019-12-02 17:00:00 7.5 34 Norte 48 Norte 0 -- -- 78
2019-12-02 16:00:00 8.8 32 Norte 48 Nordeste 0 -- -- 75
2019-12-02 15:00:00 9.1 24 Nordeste 39 Nordeste 0 -- -- 70
2019-12-02 14:00:00 9.1 27 Nordeste 39 Norte 0 -- -- 74
2019-12-02 13:00:00 9.7 21 Nordeste 35 Nordeste 0 -- -- 70
2019-12-02 12:00:00 9.4 25 Nordeste 37 Nordeste 0 -- -- 70
2019-12-02 11:00:00 8.2 24 Nordeste 38 Nordeste 0 -- -- 75
2019-12-02 10:00:00 5.7 22 Norte 30 Norte 0 -- -- 85
2019-12-02 09:00:00 3.5 16 Nordeste 28 Nordeste 0 -- -- 92
2019-12-02 08:00:00 3.1 21 Norte 28 Nordeste 0 -- -- 94
2019-12-02 07:00:00 2.7 13 Norte 25 Norte 0 -- -- 95
2019-12-02 06:00:00 3.3 19 Norte 29 Norte 0 -- -- 93
2019-12-02 05:00:00 3.3 19 Norte 26 Norte 0 -- -- 94
2019-12-02 04:00:00 3.4 13 Nordeste 24 Norte 0 -- -- 95
2019-12-02 03:00:00 3.7 21 Norte 28 Norte 0 -- -- 95
2019-12-02 02:00:00 3.9 17 Nordeste 25 Nordeste 0 -- -- 94
2019-12-02 01:00:00 4.4 22 Norte 30 Norte 0 -- -- 92
2019-12-02 00:00:00 5.6 20 Norte 29 Norte 0 -- -- 90
2019-12-01 23:00:00 5.9 25 Norte 32 Norte 0 -- -- 93
2019-12-01 22:00:00 5.7 18 Norte 25 Norte 0 -- -- 94
2019-12-01 21:00:00 6.2 16 Norte 23 Norte 0 -- -- 94
2019-12-01 20:00:00 6 14 Norte 18 Norte 0.2 -- -- 95
2019-12-01 19:00:00 6.1 13 Norte 22 Nordeste 0.2 -- -- 95
2019-12-01 18:00:00 6.3 17 Nordeste 23 Nordeste 0 -- -- 92
2019-12-01 17:00:00 6.8 15 Nordeste 21 Nordeste 0.2 -- -- 93
2019-12-01 16:00:00 7.6 8 Nordeste 10 Nordeste 0 -- -- 86
2019-12-01 15:00:00 7.5 6 Este 10 Este 0 -- -- 85
2019-12-01 14:00:00 7.6 6 Este 10 Este 0.2 -- -- 89
2019-12-01 13:00:00 7.2 5 Este 9 Este 0.4 -- -- 90
2019-12-01 12:00:00 7 5 Sudeste 9 Nordeste 0 -- -- 92
2019-12-01 11:00:00 6.7 6 Nordeste 8 Nordeste 0.4 -- -- 94
2019-12-01 10:00:00 5.7 4 Este 9 Este 0.2 -- -- 98
2019-12-01 09:00:00 4.5 4 Este 10 Nordeste 0.4 -- -- 100
2019-12-01 08:00:00 4 5 Nordeste 6 Este 0.6 -- -- 100
2019-12-01 07:00:00 4.1 6 Este 9 Este 0.8 -- -- 100
2019-12-01 06:00:00 3.8 0 Calma 8 Nordeste 0.4 -- -- 100
2019-12-01 05:00:00 3.1 4 Nordeste 5 Nordeste 0 -- -- 100
2019-12-01 04:00:00 1.7 0 Calma 5 Sudeste 0 -- -- 100
2019-12-01 03:00:00 1.1 3 Nordeste 6 Este 0 -- -- 100
2019-12-01 02:00:00 0.9 0 Calma 4 Sur 0 -- -- 100
2019-12-01 01:00:00 0.5 0 Calma 3 Oeste 0 -- -- 99
2019-12-01 00:00:00 2 0 Calma 6 Oeste 0 -- -- 98
2019-11-30 23:00:00 3.5 3 Oeste 12 Sur 0 -- -- 99
2019-11-30 22:00:00 3.9 0 Calma 7 Sudeste 0 -- -- 100
2019-11-30 21:00:00 5.9 5 Este 13 Sur 0 -- -- 96
2019-11-30 20:00:00 6.6 8 Sudoeste 21 Sur 0 -- -- 95
2019-11-30 19:00:00 6.7 12 Sur 18 Sur 0.2 -- -- 97
2019-11-30 18:00:00 7.1 5 Sur 28 Oeste 0.8 -- -- 96
2019-11-30 17:00:00 7.6 16 Oeste 41 Oeste 1 -- -- 94
2019-11-30 16:00:00 8.5 23 Oeste 51 Oeste 4.6 -- -- 93
2019-11-30 15:00:00 11.5 23 Oeste 47 Sudoeste 1 -- -- 95
2019-11-30 14:00:00 13.6 29 Sudoeste 51 Sudoeste 0 -- -- 79
2019-11-30 13:00:00 14.4 15 Sudoeste 36 Sudoeste 0.2 -- -- 77
2019-11-30 12:00:00 13.5 14 Sudoeste 35 Sudoeste 0 -- -- 78
2019-11-30 11:00:00 13.7 12 Sudoeste 23 Sur 0 -- -- 80
2019-11-30 10:00:00 11.6 5 Sudoeste 12 Sur 0 -- -- 87
2019-11-30 09:00:00 9.9 3 Sur 5 Sur 0 -- -- 97
2019-11-30 08:00:00 10 2 Sur 8 Oeste 0 -- -- 99
2019-11-30 07:00:00 9.9 2 Oeste 14 Sudoeste 0 -- -- 99
2019-11-30 06:00:00 10.4 7 Sudoeste 17 Sur 0 -- -- 99
2019-11-30 05:00:00 10.7 6 Sur 11 Sur 0 -- -- 100
2019-11-30 04:00:00 10.7 0 Calma 8 Sudoeste 0 -- -- 100
2019-11-30 03:00:00 10.7 3 Oeste 10 Sudoeste 0 -- -- 100
2019-11-30 02:00:00 10.7 4 Sur 15 Sur 0.2 -- -- 100
2019-11-30 01:00:00 10.6 6 Sur 13 Sur 1 -- -- 100
2019-11-30 00:00:00 9.5 2 Este 4 Este 1.4 -- -- 100
2019-11-29 23:00:00 9.2 0 Calma 6 Sur 2 -- -- 100
2019-11-29 22:00:00 8.1 0 Calma 4 Nordeste 0 -- -- 100
2019-11-29 21:00:00 7.8 0 Calma 2 Este 0 -- -- 100
2019-11-29 20:00:00 7.7 0 Calma 5 Este 0 -- -- 98
2019-11-29 19:00:00 9.4 0 Calma 9 Sudoeste 0 -- -- 96
2019-11-29 18:00:00 11.8 4 Sudoeste 8 Sudoeste 0 -- -- 93
2019-11-29 17:00:00 12.9 3 Sudoeste 13 Oeste 0 -- -- 88
2019-11-29 16:00:00 14 6 Sudoeste 14 Sudoeste 0 -- -- 85
2019-11-29 15:00:00 14.1 6 Oeste 15 Oeste 0 -- -- 83
2019-11-29 14:00:00 13.1 9 Oeste 14 Oeste 0 -- -- 89
2019-11-29 13:00:00 12.4 8 Sudoeste 18 Oeste 0 -- -- 95
2019-11-29 12:00:00 12.4 5 Oeste 15 Sudoeste 0 -- -- 96
2019-11-29 11:00:00 11.6 5 Sudoeste 14 Sudoeste 0 -- -- 99
2019-11-29 10:00:00 11.2 6 Sudoeste 14 Sudoeste 0 -- -- 99
2019-11-29 09:00:00 10.9 6 Sudoeste 17 Sudoeste 0 -- -- 100
2019-11-29 08:00:00 10.8 7 Sudoeste 20 Sudoeste 0 -- -- 100
2019-11-29 07:00:00 10.8 8 Sudoeste 19 Sudoeste 0.2 -- -- 99
2019-11-29 06:00:00 10.7 6 Sudoeste 18 Sudoeste 0.2 -- -- 99
2019-11-29 05:00:00 10.7 11 Oeste 22 Oeste 0.6 -- -- 99
2019-11-29 04:00:00 10.7 11 Oeste 21 Oeste 0.6 -- -- 97
2019-11-29 03:00:00 10.7 10 Oeste 22 Sudoeste 0.8 -- -- 97
2019-11-29 02:00:00 10.4 6 Sudoeste 22 Oeste 1 -- -- 98
2019-11-29 01:00:00 10.6 8 Oeste 22 Sudoeste 0.2 -- -- 96
2019-11-29 00:00:00 10.9 15 Sudoeste 31 Oeste 0 -- -- 90
2019-11-28 23:00:00 10.9 10 Sudoeste 21 Sudoeste 0 -- -- 86
2019-11-28 22:00:00 11.3 10 Sudoeste 27 Sudoeste 0 -- -- 81
2019-11-28 21:00:00 11.3 13 Sudoeste 28 Sudoeste 0 -- -- 81
2019-11-28 20:00:00 11.3 15 Sudoeste 35 Sur 0 -- -- 78
2019-11-28 19:00:00 11.4 18 Sudoeste 35 Sudoeste 0 -- -- 77
2019-11-28 18:00:00 11.6 14 Sudoeste 32 Sudoeste 0 -- -- 79
2019-11-28 17:00:00 11.9 15 Sudoeste 29 Sudoeste 0 -- -- 74
2019-11-28 16:00:00 12.1 11 Sudoeste 29 Sudoeste 0 -- -- 73
2019-11-28 15:00:00 12.1 14 Sudoeste 40 Oeste 0 -- -- 74
2019-11-28 14:00:00 12.6 19 Sudoeste 41 Sudoeste 0 -- -- 72
2019-11-28 13:00:00 12.5 17 Sudoeste 41 Sudoeste 0 -- -- 76
2019-11-28 12:00:00 12.4 14 Sudoeste 30 Sudoeste 0 -- -- 73
2019-11-28 11:00:00 11.2 9 Sudoeste 21 Sur 0 -- -- 80
2019-11-28 10:00:00 9.4 2 Sudoeste 12 Sudoeste 0 -- -- 85
2019-11-28 09:00:00 8.8 4 Sudoeste 17 Sudoeste 0 -- -- 87
2019-11-28 08:00:00 8.9 9 Sudoeste 20 Sudoeste 0 -- -- 86
2019-11-28 07:00:00 8.8 12 Sudoeste 31 Sudoeste 0 -- -- 87
2019-11-28 06:00:00 9 9 Sudoeste 21 Sudoeste 0 -- -- 87
2019-11-28 05:00:00 9.1 11 Sudoeste 30 Sudoeste 0 -- -- 87
2019-11-28 04:00:00 9 15 Sudoeste 35 Sudoeste 0 -- -- 87
2019-11-28 03:00:00 9.1 15 Sudoeste 31 Sudoeste 0 -- -- 86
2019-11-28 02:00:00 9.1 13 Sudoeste 27 Sudoeste 0 -- -- 87
2019-11-28 01:00:00 9 13 Sudoeste 27 Sudoeste 0 -- -- 88
2019-11-28 00:00:00 9.1 18 Sudoeste 37 Sudoeste 0 -- -- 88
2019-11-27 23:00:00 9.4 17 Sudoeste 27 Sudoeste 0 -- -- 87
2019-11-27 22:00:00 9.3 14 Sudoeste 26 Sudoeste 0 -- -- 87
2019-11-27 21:00:00 9.5 11 Sudoeste 24 Sudoeste 0 -- -- 83
2019-11-27 20:00:00 9.7 10 Sudoeste 23 Sudoeste 0 -- -- 82
2019-11-27 19:00:00 9.8 8 Sudoeste 22 Sudoeste 0 -- -- 80
2019-11-27 18:00:00 10.1 12 Sudoeste 28 Sudoeste 0 -- -- 79
2019-11-27 17:00:00 10.5 12 Sudoeste 32 Sudoeste 0 -- -- 77
2019-11-27 16:00:00 10.7 17 Sudoeste 42 Sudoeste 0 -- -- 73
2019-11-27 15:00:00 11.2 23 Sudoeste 41 Sudoeste 0 -- -- 71
2019-11-27 14:00:00 11.5 18 Sudoeste 42 Sudoeste 0 -- -- 71
2019-11-27 06:00:00 -- -- -- -- -- -- -- -- --
2019-11-27 05:00:00 -- -- -- -- -- -- -- -- --
2019-11-27 04:00:00 8.2 17 Sudoeste 38 Sudoeste 0 -- -- 85
2019-11-27 03:00:00 8.4 11 Sudoeste 37 Sudoeste 0 -- -- 90
2019-11-27 02:00:00 8.9 13 Sudoeste 34 Sudoeste 0 -- -- 90
2019-11-27 01:00:00 9.8 18 Sudoeste 44 Oeste 0 -- -- 89
2019-11-27 00:00:00 10.2 18 Sudoeste 47 Sudoeste 1.4 -- -- 92
2019-11-26 23:00:00 10.8 18 Sudoeste 41 Oeste 0.2 -- -- 89
2019-11-26 22:00:00 12.5 22 Sudoeste 43 Sudoeste 0.2 -- -- 75
2019-11-26 21:00:00 12.3 21 Sudoeste 44 Sudoeste 0 -- -- 80
2019-11-26 20:00:00 11.7 14 Sudoeste 29 Sudoeste 0.4 -- -- 93
2019-11-26 19:00:00 13 24 Sudoeste 42 Sudoeste 0 -- -- 84
2019-11-26 18:00:00 14 22 Sur 42 Sur 0 -- -- 75
2019-11-26 17:00:00 13.3 18 Sudoeste 35 Sudoeste 0.4 -- -- 83
2019-11-26 16:00:00 13.9 14 Sudoeste 24 Sudoeste 0.2 -- -- 86
2019-11-26 15:00:00 15.1 12 Sudoeste 28 Sur 0 -- -- 79
2019-11-26 14:00:00 13.8 13 Sudoeste 28 Sudoeste 0 -- -- 85
2019-11-26 13:00:00 14.8 12 Sudoeste 26 Sudoeste 0 -- -- 79
2019-11-26 12:00:00 13.8 9 Sudoeste 18 Sudoeste 0 -- -- 85
2019-11-26 11:00:00 11.1 2 Sudeste 5 Este 0.2 -- -- 96
2019-11-26 10:00:00 10.2 0 Calma 3 Este 0.6 -- -- 97
2019-11-26 09:00:00 9.3 0 Calma 2 Sudoeste 0 -- -- 97
2019-11-26 08:00:00 9 2 Oeste 4 Oeste 0 -- -- 97
2019-11-26 07:00:00 9.1 2 Este 8 Nordeste 0 -- -- 96
2019-11-26 06:00:00 8.4 5 Nordeste 6 Nordeste 0 -- -- 98
2019-11-26 05:00:00 7.7 3 Este 5 Este 0 -- -- 98
2019-11-26 04:00:00 6.3 3 Nordeste 5 Oeste 0 -- -- 96
2019-11-26 03:00:00 8.3 0 Calma 11 Sudoeste 0 -- -- 93
2019-11-26 02:00:00 9.5 6 Sudoeste 12 Sudoeste 0 -- -- 90
2019-11-26 01:00:00 9.2 3 Sudoeste 12 Sur 0 -- -- 92
2019-11-26 00:00:00 8.1 0 Calma 4 Sudeste 0 -- -- 97
2019-11-25 23:00:00 7.4 0 Calma 6 Oeste 0 -- -- 96
2019-11-25 22:00:00 7.9 3 Sur 8 Sudoeste 0 -- -- 96
2019-11-25 21:00:00 8.7 4 Sudoeste 7 Sudoeste 0 -- -- 91
2019-11-25 20:00:00 8.9 4 Sudoeste 7 Sudoeste 0 -- -- 91
2019-11-25 19:00:00 10.2 3 Sudoeste 12 Sudoeste 0 -- -- 83
2019-11-25 18:00:00 11.4 3 Oeste 12 Oeste 0 -- -- 80
2019-11-25 17:00:00 12.3 9 Oeste 22 Sudoeste 0 -- -- 75
2019-11-25 16:00:00 12.6 12 Oeste 33 Oeste 0 -- -- 72
2019-11-25 15:00:00 13.9 19 Oeste 36 Sudoeste 0 -- -- 64
2019-11-25 14:00:00 13 16 Sudoeste 34 Oeste 0 -- -- 76
2019-11-25 13:00:00 12.9 17 Sudoeste 31 Oeste 0 -- -- 80
2019-11-25 12:00:00 12 19 Oeste 34 Oeste 0 -- -- 85
2019-11-25 11:00:00 12.2 13 Sudoeste 29 Sudoeste 0 -- -- 85
2019-11-25 10:00:00 10.5 9 Sudoeste 18 Sudoeste 0 -- -- 91
2019-11-25 09:00:00 9.7 4 Sudoeste 13 Sudoeste 0 -- -- 96
2019-11-25 08:00:00 9.5 7 Sudoeste 16 Sudoeste 0 -- -- 97
2019-11-25 07:00:00 9.4 6 Sudoeste 17 Sudoeste 0 -- -- 98
2019-11-25 06:00:00 9.5 7 Sudoeste 23 Sudoeste 0 -- -- 97
2019-11-25 05:00:00 9.6 10 Sudoeste 27 Sur 0 -- -- 97
2019-11-25 04:00:00 9.6 11 Sudoeste 37 Oeste 0 -- -- 98
2019-11-25 03:00:00 9.9 21 Sudoeste 41 Sudoeste 0.2 -- -- 98
2019-11-25 02:00:00 7.9 0 Calma 4 Sudoeste 2 -- -- 99
2019-11-25 01:00:00 7.5 3 Oeste 13 Sudoeste 0.6 -- -- 98
2019-11-25 00:00:00 7.4 5 Sudoeste 12 Oeste 1.4 -- -- 97
2019-11-24 23:00:00 6.4 2 Sur 5 Sudoeste 0 -- -- 94
2019-11-24 22:00:00 7.9 0 Calma 10 Sur 0 -- -- 86
2019-11-24 21:00:00 7.9 4 Sudoeste 12 Sur 0 -- -- 85
2019-11-24 20:00:00 7.6 4 Sudoeste 10 Sudoeste 0 -- -- 85
2019-11-24 19:00:00 7.5 5 Sur 19 Sudoeste 0 -- -- 86
2019-11-24 18:00:00 7.9 11 Sudoeste 19 Sudoeste 0 -- -- 82
2019-11-24 17:00:00 8.3 7 Sudoeste 28 Sudoeste 0 -- -- 79
2019-11-24 16:00:00 8.6 10 Sudoeste 26 Sudoeste 0 -- -- 75
2019-11-24 15:00:00 8.3 12 Sudoeste 25 Sudoeste 0 -- -- 74
2019-11-24 14:00:00 8.9 9 Sudoeste 23 Sudoeste 0 -- -- 72
2019-11-24 13:00:00 7.7 10 Sudoeste 22 Sur 0 -- -- 80
2019-11-24 12:00:00 6 8 Sudoeste 15 Sudoeste 0 -- -- 87
2019-11-24 11:00:00 4.6 5 Oeste 14 Sur 0 -- -- 93
2019-11-24 10:00:00 3.8 7 Sudoeste 16 Sudoeste 0 -- -- 96
2019-11-24 09:00:00 3.1 9 Sudoeste 17 Sudoeste 0 -- -- 97
2019-11-24 08:00:00 3.1 7 Sudoeste 16 Sudoeste 0 -- -- 97
2019-11-24 07:00:00 3.1 5 Sudoeste 17 Oeste 0 -- -- 97
2019-11-24 06:00:00 3.2 7 Oeste 15 Oeste 0 -- -- 98
2019-11-24 05:00:00 2.9 7 Sudoeste 16 Sudoeste 0 -- -- 97
2019-11-24 04:00:00 3.2 8 Oeste 15 Oeste 0 -- -- 96
2019-11-24 03:00:00 3.6 8 Sudoeste 15 Sudoeste 0 -- -- 96
2019-11-24 02:00:00 2.7 6 Sudoeste 14 Sudoeste 0 -- -- 97
2019-11-24 01:00:00 2 6 Oeste 12 Sudoeste 0 -- -- 97
2019-11-24 00:00:00 1.1 2 Sur 11 Oeste 0 -- -- 96
2019-11-23 23:00:00 3.5 5 Oeste 11 Oeste 0 -- -- 90
2019-11-23 22:00:00 4.8 5 Sudoeste 16 Oeste 0 -- -- 84
2019-11-23 21:00:00 6.3 7 Sudoeste 26 Oeste 0 -- -- 78
2019-11-23 20:00:00 7.1 9 Sudoeste 22 Sudoeste 0 -- -- 77
2019-11-23 19:00:00 6.1 0 Calma 9 Oeste 0 -- -- 77
2019-11-23 18:00:00 7.7 6 Oeste 31 Oeste 0 -- -- 67
2019-11-23 17:00:00 10.3 16 Oeste 32 Oeste 0 -- -- 64
2019-11-23 16:00:00 10.1 20 Oeste 40 Oeste 0 -- -- 64
2019-11-23 15:00:00 9.8 19 Oeste 41 Oeste 0 -- -- 66
2019-11-23 14:00:00 9.7 23 Oeste 44 Oeste 0 -- -- 64
2019-11-23 13:00:00 9.6 23 Oeste 44 Oeste 0 -- -- 66
2019-11-23 12:00:00 8.3 27 Oeste 40 Oeste 0 -- -- 72
2019-11-23 11:00:00 6.5 23 Oeste 45 Oeste 0 -- -- 77
2019-11-23 10:00:00 5.8 19 Oeste 36 Oeste 0 -- -- 78
2019-11-23 09:00:00 4.5 14 Oeste 38 Sudoeste 0 -- -- 83
2019-11-23 08:00:00 4.1 19 Oeste 37 Oeste 0 -- -- 85
2019-11-23 07:00:00 4.7 23 Oeste 43 Oeste 0 -- -- 85
2019-11-23 06:00:00 5.2 19 Oeste 41 Oeste 0 -- -- 85
2019-11-23 05:00:00 5.3 21 Sudoeste 41 Sudoeste 0.2 -- -- 88
2019-11-23 04:00:00 4.8 21 Oeste 44 Sudoeste 1.8 -- -- 94
2019-11-23 03:00:00 5.3 19 Sudoeste 39 Sudoeste 0.2 -- -- 89
2019-11-23 02:00:00 6.1 19 Sudoeste 46 Sudoeste 0 -- -- 85
2019-11-23 01:00:00 6.5 19 Sudoeste 52 Sudoeste 0 -- -- 84
2019-11-23 00:00:00 7.3 22 Sudoeste 48 Sudoeste 0 -- -- 83
2019-11-22 23:00:00 8.1 23 Sudoeste 42 Sudoeste 0 -- -- 84
2019-11-22 22:00:00 8.5 17 Sudoeste 41 Sudoeste 0 -- -- 81
2019-11-22 21:00:00 8.2 21 Sudoeste 39 Sudoeste 0 -- -- 82
2019-11-22 20:00:00 7.9 15 Sudoeste 31 Sudoeste 0 -- -- 89
2019-11-22 19:00:00 8.1 20 Sudoeste 49 Oeste 0.2 -- -- 92
2019-11-22 18:00:00 9.5 19 Sudoeste 47 Sudoeste 0.2 -- -- 87
2019-11-22 17:00:00 10.6 14 Sudoeste 55 Oeste 2.6 -- -- 93
2019-11-22 16:00:00 12.9 17 Sudoeste 34 Sur 0.4 -- -- 78
2019-11-22 15:00:00 11.5 13 Sur 42 Sur 0 -- -- 81
2019-11-22 14:00:00 10.1 17 Sur 46 Sur 0.4 -- -- 86
2019-11-22 13:00:00 10.4 25 Sur 50 Sur 0.2 -- -- 80
2019-11-22 12:00:00 10.9 26 Sur 54 Sur 0 -- -- 76
2019-11-22 11:00:00 9.5 19 Sur 34 Sudeste 0 -- -- 82
2019-11-22 10:00:00 8.2 12 Sur 23 Sur 0 -- -- 88
2019-11-22 09:00:00 7 9 Sur 28 Sur 1 -- -- 94
2019-11-22 08:00:00 7 12 Sur 24 Sur 1.2 -- -- 93
2019-11-22 07:00:00 7.4 12 Sur 23 Sudeste 0 -- -- 89
2019-11-22 06:00:00 6.8 8 Sur 18 Sur 0 -- -- 92
2019-11-22 05:00:00 6 5 Sudeste 11 Sur 0.2 -- -- 98
2019-11-22 04:00:00 4.6 0 Calma 4 Oeste 0.6 -- -- 99
2019-11-22 03:00:00 4.2 2 Nordeste 3 Nordeste 0 -- -- 99
2019-11-22 02:00:00 4.4 0 Calma 2 Nordeste 0.2 -- -- 99
2019-11-22 01:00:00 4.5 0 Calma 6 Nordeste 0 -- -- 99
2019-11-22 00:00:00 4.2 3 Nordeste 5 Este 0 -- -- 100
2019-11-21 23:00:00 3.5 3 Este 10 Nordeste 0 -- -- 99
2019-11-21 22:00:00 3 3 Este 9 Este 0 -- -- 100
2019-11-21 21:00:00 2.7 0 Calma 4 Sur 0 -- -- 99
2019-11-21 20:00:00 2.8 2 Nordeste 4 Sudeste 0 -- -- 100
2019-11-21 19:00:00 4.4 0 Calma 5 Este 0 -- -- 97
2019-11-21 18:00:00 5.9 3 Oeste 12 Sudoeste 0.2 -- -- 91
2019-11-21 17:00:00 7.3 8 Sudoeste 19 Sur 0 -- -- 87
2019-11-21 16:00:00 8.1 12 Noroeste 23 Oeste 0 -- -- 81
2019-11-21 15:00:00 9.2 10 Oeste 20 Oeste 0 -- -- 74
2019-11-21 14:00:00 8.4 12 Oeste 24 Sudoeste 0 -- -- 82
2019-11-21 13:00:00 9 9 Sudoeste 44 Oeste 1 -- -- 83
2019-11-21 12:00:00 7.6 12 Sudoeste 24 Sudoeste 0 -- -- 90
2019-11-21 11:00:00 6.7 0 Calma 4 Este 0.2 -- -- 98
2019-11-21 10:00:00 4.4 0 Calma 4 Este 0.6 -- -- 100
2019-11-21 09:00:00 3.7 3 Nordeste 5 Nordeste 1.6 -- -- 100
2019-11-21 08:00:00 3.3 2 Nordeste 3 Nordeste 0.4 -- -- 100
2019-11-21 07:00:00 2.8 0 Calma 2 Sudoeste 0 -- -- 99
2019-11-21 06:00:00 3.2 0 Calma 3 Noroeste 0 -- -- 99
2019-11-21 05:00:00 3.4 0 Calma 5 Sudeste 0 -- -- 99
2019-11-21 04:00:00 3.2 0 Calma 4 Oeste 0.2 -- -- 99
2019-11-21 03:00:00 3 2 Oeste 4 Oeste 0 -- -- 100
2019-11-21 02:00:00 2.7 0 Calma 4 Sur 0 -- -- 99
2019-11-21 01:00:00 3.7 0 Calma 5 Sur 0 -- -- 99
2019-11-21 00:00:00 4.1 0 Calma 3 Sudeste 0 -- -- 98
2019-11-20 23:00:00 4.5 0 Calma 4 Sudeste 0.2 -- -- 99
2019-11-20 22:00:00 4.7 0 Calma 4 Sudoeste 0 -- -- 98
2019-11-20 21:00:00 4.8 0 Calma 4 Sur 0 -- -- 97
2019-11-20 20:00:00 4.8 0 Calma 4 Sur 0 -- -- 97
2019-11-20 19:00:00 4.9 0 Calma 6 Sudeste 0 -- -- 97
2019-11-20 18:00:00 5.2 4 Sur 10 Sur 0.6 -- -- 96
2019-11-20 17:00:00 5.8 3 Sur 9 Sur 0.8 -- -- 96
2019-11-20 16:00:00 6.2 3 Sur 14 Sur 0.6 -- -- 94
2019-11-20 15:00:00 6.4 6 Sur 13 Sudoeste 0.6 -- -- 92
2019-11-20 14:00:00 7 5 Sudoeste 10 Sur 0.2 -- -- 89
2019-11-20 13:00:00 7.2 2 Sudeste 6 Sudoeste 0 -- -- 86
2019-11-20 12:00:00 5.6 2 Sur 6 Sur 0 -- -- 92
2019-11-20 11:00:00 3.9 3 Sudoeste 7 Sur 0 -- -- 92
2019-11-20 10:00:00 3.1 0 Calma 8 Este 0 -- -- 87
2019-11-20 09:00:00 1.6 2 Este 4 Este 0 -- -- 97
2019-11-20 08:00:00 0.8 3 Este 6 Este 0 -- -- 97
2019-11-20 07:00:00 0.9 4 Este 6 Este 0 -- -- 99
2019-11-20 06:00:00 0.4 5 Este 8 Este 0 -- -- 99
2019-11-20 05:00:00 -0.7 5 Este 6 Este 0 -- -- 99
2019-11-20 04:00:00 0.1 2 Este 4 Este 0 -- -- 97
2019-11-20 03:00:00 1.6 3 Este 6 Este 0 -- -- 97
2019-11-20 02:00:00 2.8 5 Este 7 Este 0 -- -- 95
2019-11-20 01:00:00 2.3 5 Este 6 Nordeste 0 -- -- 98
2019-11-20 00:00:00 1 3 Este 7 Nordeste 0 -- -- 99
2019-11-19 23:00:00 0.9 4 Este 7 Este 0 -- -- 99
2019-11-19 22:00:00 0.3 5 Este 7 Este 0 -- -- 99
2019-11-19 21:00:00 0.9 4 Este 6 Nordeste 0 -- -- 98
2019-11-19 20:00:00 1.8 0 Calma 4 Nordeste 0 -- -- 97
2019-11-19 19:00:00 3.1 4 Este 7 Nordeste 0 -- -- 95
2019-11-19 18:00:00 4.9 0 Calma 6 Noroeste 0 -- -- 88
2019-11-19 17:00:00 7.5 4 Oeste 9 Oeste 0 -- -- 72
2019-11-19 16:00:00 8.1 5 Oeste 9 Oeste 0 -- -- 69
2019-11-19 15:00:00 8.6 5 Oeste 13 Oeste 0 -- -- 68
2019-11-19 14:00:00 8.5 5 Oeste 13 Oeste 0 -- -- 70
2019-11-19 13:00:00 8.2 4 Sudoeste 13 Sudoeste 0 -- -- 72
2019-11-19 12:00:00 7.1 4 Sudoeste 10 Sudoeste 0 -- -- 76
2019-11-19 11:00:00 4.7 0 Calma 5 Este 0 -- -- 91
2019-11-19 10:00:00 1.5 0 Calma 3 Este 0.2 -- -- 97
2019-11-19 09:00:00 -1.4 0 Calma 2 Este 0 -- -- 98
2019-11-19 08:00:00 -4.3 0 Calma 4 Nordeste 0 -- -- 98
2019-11-19 07:00:00 -4.8 3 Este 5 Este 0 -- -- 98
2019-11-19 06:00:00 -4.1 2 Este -- -- 0 -- -- 99
2019-11-19 05:00:00 -3.7 4 Este 6 Este 0 -- -- 99
2019-11-19 04:00:00 -3.1 3 Sudeste 5 Este 0 -- -- 100
2019-11-19 03:00:00 -2.3 2 Sudeste 4 Sudeste 0 -- -- 98
2019-11-19 02:00:00 -2.5 2 Este -- -- 0 -- -- 100
2019-11-19 01:00:00 -1.5 3 Sudeste 6 Este 0 -- -- 100
2019-11-19 00:00:00 -0.2 4 Este 6 Este 0 -- -- 98
2019-11-18 23:00:00 0.8 2 Este 4 Este 0 -- -- 99
2019-11-18 22:00:00 0.9 2 Nordeste 5 Nordeste 0 -- -- 99
2019-11-18 21:00:00 2.2 0 Calma 4 Sudoeste 0 -- -- 98
2019-11-18 20:00:00 1.8 0 Calma 6 Este 0 -- -- 98
2019-11-18 19:00:00 2.6 4 Este 7 Nordeste 0 -- -- 94
2019-11-18 18:00:00 4 5 Nordeste 8 Nordeste 0 -- -- 89
2019-11-18 17:00:00 6.8 3 Sudoeste 7 Oeste 0 -- -- 79
2019-11-18 16:00:00 7.3 3 Noroeste 8 Oeste 0 -- -- 73
2019-11-18 15:00:00 7 4 Oeste 9 Oeste 0 -- -- 77
2019-11-18 14:00:00 6.8 5 Sudoeste 13 Sudoeste 0 -- -- 77
2019-11-18 13:00:00 6.1 5 Sudoeste 8 Oeste 0 -- -- 90
2019-11-18 12:00:00 4.7 3 Oeste 10 Oeste 0 -- -- 96
2019-11-18 11:00:00 0.6 2 Sudoeste 6 Sudoeste 0 -- -- 100
2019-11-18 10:00:00 -0.4 3 Sur 6 Oeste 0 -- -- 100
2019-11-18 09:00:00 -1.1 3 Oeste 6 Oeste 0 -- -- 100
2019-11-18 08:00:00 -0.9 2 Oeste 5 Oeste 0 -- -- 100
2019-11-18 07:00:00 -1.7 0 Calma 4 Este 0 -- -- 100
2019-11-18 06:00:00 -2.1 3 Este 6 Sudeste 0 -- -- 100
2019-11-18 05:00:00 -1.7 3 Sudoeste 5 Noroeste 0 -- -- 100
2019-11-18 04:00:00 -1.8 0 Calma 3 Este 0 -- -- 100
2019-11-18 03:00:00 -2.2 2 Sudeste 6 Sudeste 0 -- -- 100
2019-11-18 02:00:00 -0.6 4 Noroeste 6 Noroeste 0 -- -- 100
2019-11-18 01:00:00 -0.6 0 Calma 5 Noroeste 0 -- -- 99
2019-11-18 00:00:00 -0.3 3 Oeste 6 Sudoeste 0 -- -- 99
2019-11-17 23:00:00 0.7 3 Noroeste 9 Oeste 0 -- -- 98
2019-11-17 22:00:00 0.4 3 Sur 6 Sudoeste 0 -- -- 99
2019-11-17 21:00:00 2.7 4 Oeste 9 Sudoeste 0 -- -- 97
2019-11-17 20:00:00 5.8 7 Oeste 18 Oeste 0 -- -- 84
2019-11-17 19:00:00 6.2 4 Oeste 15 Oeste 0 -- -- 96
2019-11-17 18:00:00 7.2 6 Sudoeste 25 Oeste 0 -- -- 94
2019-11-17 17:00:00 9.1 15 Oeste 31 Sudoeste 0 -- -- 86
2019-11-17 16:00:00 8.4 13 Oeste 26 Oeste 0.2 -- -- 97
2019-11-17 15:00:00 7.8 12 Sudoeste 28 Sudoeste 0.4 -- -- 99
2019-11-17 14:00:00 7.4 13 Oeste 31 Oeste 0 -- -- 99
2019-11-17 13:00:00 6.6 11 Oeste 24 Oeste 1.2 -- -- 99
2019-11-17 12:00:00 5.6 7 Sudoeste 14 Sudoeste 2.8 -- -- 99
2019-11-17 11:00:00 4.8 5 Sudoeste 14 Sudoeste 1 -- -- 99
2019-11-17 10:00:00 4 6 Sudoeste 15 Sur 0.2 -- -- 98
2019-11-17 09:00:00 3.4 4 Sudoeste 14 Sudoeste 0.4 -- -- 97
2019-11-17 08:00:00 3.6 7 Sudoeste 16 Sudoeste 0 -- -- 91
2019-11-17 07:00:00 3.3 3 Oeste 7 Sudoeste 0 -- -- 89
2019-11-17 06:00:00 2.8 6 Oeste 11 Oeste 0 -- -- 90
2019-11-17 05:00:00 2.4 4 Oeste 11 Sudoeste 0 -- -- 90
2019-11-17 04:00:00 1.6 5 Oeste 11 Sudoeste 0 -- -- 94
2019-11-17 03:00:00 0.7 0 Calma 4 Oeste 0 -- -- 94
2019-11-17 02:00:00 0.4 3 Sudoeste 5 Oeste 0 -- -- 94
2019-11-17 01:00:00 -0.8 0 Calma 4 Sudoeste 0 -- -- 96
2019-11-17 00:00:00 -0.8 2 Oeste 3 Oeste 0 -- -- 94
2019-11-16 23:00:00 0.7 0 Calma 10 Sudoeste 0 -- -- 89
2019-11-16 22:00:00 2.7 4 Sudoeste 12 Oeste 0 -- -- 82
2019-11-16 21:00:00 3.7 6 Sudoeste 12 Oeste 0 -- -- 80
2019-11-16 20:00:00 2.4 3 Sudoeste 6 Sudoeste 0 -- -- 90
2019-11-16 19:00:00 4.1 4 Sudoeste 15 Sudoeste 0 -- -- 83
2019-11-16 18:00:00 5.5 7 Sudoeste 24 Oeste 0 -- -- 76
2019-11-16 17:00:00 7.9 17 Sudoeste 28 Sudoeste 0 -- -- 63
2019-11-16 16:00:00 7.2 10 Sudoeste 26 Oeste 0 -- -- 67
2019-11-16 15:00:00 7.1 15 Oeste 26 Oeste 0 -- -- 64
2019-11-16 14:00:00 7.8 12 Sudoeste 26 Sudoeste 0 -- -- 62
2019-11-16 13:00:00 6.8 11 Sudoeste 22 Sudoeste 0 -- -- 63
2019-11-16 12:00:00 5.3 11 Sudoeste 20 Sudoeste 0 -- -- 73
2019-11-16 11:00:00 3.3 9 Oeste 15 Sudoeste 0 -- -- 81
2019-11-16 10:00:00 1.1 4 Sudoeste 10 Sudoeste 0 -- -- 90
2019-11-16 09:00:00 -2.9 2 Oeste 6 Oeste 0 -- -- 96
2019-11-16 08:00:00 -5.3 0 Calma 2 Sur 0 -- -- 97
2019-11-16 07:00:00 -5.1 0 Calma 2 Noroeste 0 -- -- 98
2019-11-16 06:00:00 -4.8 0 Calma 3 Oeste 0 -- -- 97
2019-11-16 05:00:00 -3.9 0 Calma 2 Sudoeste 0 -- -- 98
2019-11-16 04:00:00 -3.9 0 Calma 2 Norte 0 -- -- 96
2019-11-16 03:00:00 -3.7 0 Calma 5 Sudeste 0 -- -- 97
2019-11-16 02:00:00 -3.2 0 Calma 3 Este 0 -- -- 98
2019-11-16 01:00:00 -0.8 2 Sur 5 Oeste 0 -- -- 91
2019-11-16 00:00:00 0.4 2 Oeste 14 Oeste 0 -- -- 90
2019-11-15 23:00:00 2.3 10 Noroeste 21 Oeste 0 -- -- 84
2019-11-15 22:00:00 3.1 3 Oeste 22 Oeste 0 -- -- 79
2019-11-15 21:00:00 3.9 10 Oeste 25 Oeste 0 -- -- 75
2019-11-15 20:00:00 3.7 7 Oeste 15 Oeste 0 -- -- 75
2019-11-15 19:00:00 3.5 5 Oeste 14 Oeste 0 -- -- 76
2019-11-15 18:00:00 5.4 9 Oeste 28 Oeste 0 -- -- 67
2019-11-15 17:00:00 7.3 16 Oeste 36 Oeste 0 -- -- 62
2019-11-15 16:00:00 7.7 21 Oeste 36 Oeste 0 -- -- 58
2019-11-15 15:00:00 6.8 21 Oeste 38 Oeste 0 -- -- 60
2019-11-15 14:00:00 7 20 Oeste 36 Oeste 0 -- -- 62
2019-11-15 13:00:00 6.7 21 Oeste 36 Oeste 0 -- -- 67
2019-11-15 12:00:00 6.5 21 Oeste 36 Oeste 0 -- -- 71
2019-11-15 11:00:00 5 18 Oeste 32 Oeste 0 -- -- 79
2019-11-15 10:00:00 3.4 12 Oeste 24 Oeste 0 -- -- 89
2019-11-15 09:00:00 1.4 7 Oeste 19 Sudoeste 0.2 -- -- 96
2019-11-15 08:00:00 1.4 8 Oeste 18 Oeste 0 -- -- 96
2019-11-15 07:00:00 1.5 7 Oeste 23 Oeste 0 -- -- 95
2019-11-15 06:00:00 2.1 12 Oeste 23 Oeste 0 -- -- 94
2019-11-15 05:00:00 2.2 14 Oeste 26 Oeste 0.2 -- -- 96
2019-11-15 04:00:00 2.3 14 Oeste 27 Oeste 0 -- -- 95
2019-11-15 03:00:00 2.3 10 Oeste 27 Oeste 0 -- -- 96
2019-11-15 02:00:00 2.3 14 Oeste 38 Noroeste 0 -- -- 94
2019-11-15 01:00:00 3.1 23 Oeste 40 Oeste 0 -- -- 87
2019-11-15 00:00:00 2.9 13 Oeste 29 Oeste 0 -- -- 90
2019-11-14 23:00:00 3.2 15 Oeste 30 Oeste 0 -- -- 88
2019-11-14 22:00:00 3.3 11 Oeste 28 Noroeste 0 -- -- 89
2019-11-14 21:00:00 3.5 8 Oeste 22 Oeste 0 -- -- 92
2019-11-14 20:00:00 3.7 12 Oeste 33 Oeste 0 -- -- 91
2019-11-14 19:00:00 4 19 Oeste 49 Oeste 0.4 -- -- 87
2019-11-14 18:00:00 2.5 24 Oeste 51 Oeste 0.4 -- -- 92
2019-11-14 17:00:00 3.4 16 Oeste 42 Oeste 0.8 -- -- 95
2019-11-14 16:00:00 3.3 21 Sudoeste 51 Sudoeste 1.6 -- -- 95
2019-11-14 15:00:00 5.5 18 Sudoeste 42 Sudoeste 0 -- -- 75
2019-11-14 14:00:00 6.3 23 Oeste 47 Oeste 0 -- -- 66
2019-11-14 13:00:00 7.1 20 Oeste 44 Oeste 0 -- -- 67
2019-11-14 12:00:00 5.4 19 Sudoeste 47 Sudoeste 0 -- -- 75
2019-11-14 11:00:00 4.8 18 Oeste 36 Oeste 0 -- -- 83
2019-11-14 10:00:00 5 12 Sudoeste 24 Sudoeste 0 -- -- 89
2019-11-14 09:00:00 3.2 9 Sudoeste 17 Sudoeste 0 -- -- 96
2019-11-14 08:00:00 3.1 5 Sudoeste 17 Sudoeste 0.2 -- -- 96
2019-11-14 07:00:00 3.7 10 Oeste 29 Noroeste 0 -- -- 89
2019-11-14 06:00:00 3.9 27 Noroeste 44 Noroeste 1.4 -- -- 91
2019-11-14 05:00:00 4.7 26 Oeste 52 Oeste 2.4 -- -- 92
2019-11-14 04:00:00 7 19 Sudoeste 43 Oeste 0.2 -- -- 86
2019-11-14 03:00:00 7.1 18 Sudoeste 38 Sudoeste 0 -- -- 81
2019-11-14 02:00:00 7.4 14 Sudoeste 32 Sudoeste 0 -- -- 81
2019-11-14 01:00:00 7.3 15 Sudoeste 35 Oeste 0 -- -- 81
2019-11-14 00:00:00 8.1 14 Oeste 43 Oeste 0 -- -- 79
2019-11-13 23:00:00 8.8 22 Oeste 38 Sudoeste 0 -- -- 79
2019-11-13 22:00:00 8.5 10 Sudoeste 22 Oeste 0 -- -- 86
2019-11-13 21:00:00 8.1 7 Oeste 18 Sudoeste 0 -- -- 89
2019-11-13 20:00:00 9.2 9 Sudoeste 16 Sudoeste 0 -- -- 84
2019-11-13 19:00:00 9 6 Sur 11 Sur 0 -- -- 81
2019-11-13 18:00:00 10.5 4 Sur 19 Sudoeste 0 -- -- 75
2019-11-13 17:00:00 13.1 10 Sudoeste 24 Sudoeste 0 -- -- 62
2019-11-13 16:00:00 14 10 Oeste 22 Oeste 0 -- -- 58
2019-11-13 15:00:00 13.8 15 Oeste 27 Oeste 0 -- -- 61
2019-11-13 14:00:00 12.9 7 Oeste 17 Oeste 0 -- -- 60
2019-11-13 13:00:00 14.2 2 Sur 13 Este 0 -- -- 58
2019-11-13 12:00:00 12.5 8 Este 19 Nordeste 0 -- -- 65
2019-11-13 11:00:00 11.4 14 Norte 30 Nordeste 0 -- -- 76
2019-11-13 10:00:00 8.8 13 Norte 23 Norte 0 -- -- 87
2019-11-13 09:00:00 7.3 13 Norte 34 Norte 0 -- -- 90
2019-11-13 08:00:00 8.3 24 Norte 46 Norte 0 -- -- 92
2019-11-13 07:00:00 11.1 18 Oeste 35 Oeste 0 -- -- 95
2019-11-13 06:00:00 10.8 15 Oeste 33 Oeste 0 -- -- 99
2019-11-13 05:00:00 10.4 18 Oeste 36 Oeste 0.4 -- -- 99
2019-11-13 04:00:00 10 18 Oeste 37 Oeste 2 -- -- 100
2019-11-13 03:00:00 9.6 17 Oeste 36 Sudoeste 2.4 -- -- 100
2019-11-13 02:00:00 9.1 15 Oeste 33 Sudoeste 3.6 -- -- 100
2019-11-13 01:00:00 9.1 19 Oeste 41 Sudoeste 0.8 -- -- 98
2019-11-13 00:00:00 8.6 13 Sudoeste 33 Oeste 0 -- -- 98
2019-11-12 23:00:00 8 14 Sudoeste 33 Sudoeste 0.4 -- -- 99
2019-11-12 22:00:00 7.6 14 Sudoeste 38 Sudoeste 1.2 -- -- 99
2019-11-12 21:00:00 7.2 12 Sudoeste 29 Sudoeste 2 -- -- 99
2019-11-12 20:00:00 6.9 8 Sudoeste 15 Sur 2.2 -- -- 99
2019-11-12 19:00:00 6.9 8 Sudoeste 21 Sudoeste 1.4 -- -- 96
2019-11-12 18:00:00 8.5 10 Sudoeste 18 Sur 0 -- -- 76
2019-11-12 17:00:00 9.4 9 Sudoeste 23 Sudoeste 0 -- -- 65
2019-11-12 16:00:00 9.8 10 Sudoeste 22 Oeste 0 -- -- 65
2019-11-12 15:00:00 9.4 15 Sudoeste 29 Sudoeste 0 -- -- 64
2019-11-12 14:00:00 10.2 12 Oeste 27 Oeste 0 -- -- 64
2019-11-12 13:00:00 9.4 13 Oeste 24 Oeste 0 -- -- 64
2019-11-12 12:00:00 8.5 12 Oeste 21 Oeste 0 -- -- 70
2019-11-12 11:00:00 6.7 6 Sudoeste 14 Sudoeste 0 -- -- 85
2019-11-12 10:00:00 2.9 4 Sudoeste 7 Sudoeste 0 -- -- 96
2019-11-12 09:00:00 0.3 0 Calma 3 Este 0 -- -- 100
2019-11-12 08:00:00 -0.1 2 Oeste 5 Este 0 -- -- 100
2019-11-12 07:00:00 -0.8 3 Nordeste 5 Nordeste 0 -- -- 100
2019-11-12 06:00:00 -0.9 -- -- -- -- 0 -- -- 100
2019-11-12 05:00:00 -0.8 0 Calma 4 Este 0 -- -- 99
2019-11-12 04:00:00 -1.1 0 Calma 2 Este 0 -- -- 100
2019-11-12 03:00:00 -1 3 Sudoeste 4 Oeste 0 -- -- 99
2019-11-12 02:00:00 -1.3 0 Calma 5 Norte 0 -- -- 98
2019-11-12 01:00:00 -0.7 0 Calma 6 Este 0 -- -- 98
2019-11-12 00:00:00 0.6 5 Nordeste 6 Norte 0 -- -- 98
2019-11-11 23:00:00 1.9 6 Nordeste 9 Nordeste 0 -- -- 96
2019-11-11 22:00:00 2.6 5 Este 18 Nordeste 0 -- -- 91
2019-11-11 21:00:00 4.8 13 Nordeste 17 Nordeste 0 -- -- 92
2019-11-11 20:00:00 4.5 4 Nordeste 10 Norte 0 -- -- 97
2019-11-11 19:00:00 4.7 3 Este 15 Nordeste 0 -- -- 93
2019-11-11 18:00:00 7.8 10 Nordeste 23 Nordeste 0 -- -- 85
2019-11-11 17:00:00 9.2 18 Nordeste 26 Nordeste 0 -- -- 84
2019-11-11 16:00:00 11.4 13 Norte 21 Norte 0 -- -- 80
2019-11-11 15:00:00 11.1 10 Noroeste 20 Noroeste 0 -- -- 83
2019-11-11 14:00:00 9.5 12 Oeste 20 Oeste 0 -- -- 98
2019-11-11 13:00:00 7.8 4 Sudoeste 13 Sudoeste 0.2 -- -- 100
2019-11-11 12:00:00 6.7 4 Sudoeste 11 Sur 0 -- -- 100
2019-11-11 11:00:00 6.2 6 Sur 14 Sur 0.2 -- -- 100
2019-11-11 10:00:00 5.6 7 Sudoeste 13 Sur 0 -- -- 100
2019-11-11 09:00:00 4.9 4 Sudoeste 8 Sur 0.2 -- -- 100
2019-11-11 08:00:00 3.6 0 Calma 3 Sur 0.2 -- -- 100
2019-11-11 07:00:00 3.2 0 Calma 2 Este 0 -- -- 100
2019-11-11 06:00:00 2.7 0 Calma 4 Sudoeste 0 -- -- 100
2019-11-11 05:00:00 1.9 0 Calma 3 Este 0 -- -- 100
2019-11-11 04:00:00 0.9 2 Sudeste 4 Sudeste 0 -- -- 99
2019-11-11 03:00:00 -0.2 0 Calma 3 Sudeste 0 -- -- 99
2019-11-11 02:00:00 -1.4 0 Calma 2 Este 0 -- -- 99
2019-11-11 01:00:00 -1.5 0 Calma 2 Este 0 -- -- 100
2019-11-11 00:00:00 -1.4 2 Este 5 Sudeste 0 -- -- 97
2019-11-10 23:00:00 0.4 0 Calma 5 Oeste 0 -- -- 96
2019-11-10 22:00:00 0.6 2 Noroeste 3 Noroeste 0 -- -- 96
2019-11-10 21:00:00 0.9 0 Calma 15 Noroeste 0 -- -- 91
2019-11-10 20:00:00 3.2 10 Noroeste 13 Noroeste 0 -- -- 90
2019-11-10 19:00:00 3.4 8 Noroeste 14 Oeste 0 -- -- 91
2019-11-10 18:00:00 5 10 Noroeste 29 Noroeste 0 -- -- 85
2019-11-10 17:00:00 6.7 24 Oeste 34 Oeste 0 -- -- 75
2019-11-10 16:00:00 7.1 17 Oeste 29 Noroeste 0 -- -- 76
2019-11-10 15:00:00 6.7 12 Oeste 28 Noroeste 0.2 -- -- 81
2019-11-10 14:00:00 6 13 Oeste 34 Oeste 0 -- -- 85
2019-11-10 13:00:00 6.5 17 Oeste 31 Oeste 0 -- -- 76
2019-11-10 12:00:00 5.8 15 Oeste 28 Oeste 0 -- -- 81
2019-11-10 11:00:00 5.7 15 Oeste 28 Oeste 0 -- -- 78
2019-11-10 10:00:00 3.8 8 Oeste 16 Oeste 0 -- -- 86
2019-11-10 09:00:00 1.5 0 Calma 4 Sur 0 -- -- 89
2019-11-10 08:00:00 -0.4 2 Sudoeste 6 Sudoeste 0 -- -- 94
2019-11-10 07:00:00 1.7 4 Oeste 23 Oeste 0 -- -- 85
2019-11-10 06:00:00 2.6 12 Oeste 27 Noroeste 0 -- -- 83
2019-11-10 05:00:00 2.3 9 Oeste 19 Noroeste 0 -- -- 86
2019-11-10 04:00:00 2.3 3 Oeste 19 Oeste 0 -- -- 89
2019-11-10 03:00:00 2.9 7 Oeste 14 Oeste 0 -- -- 91
2019-11-10 02:00:00 3.6 6 Oeste 21 Oeste 0 -- -- 93
2019-11-10 01:00:00 5 12 Oeste 30 Oeste 0 -- -- 91
2019-11-10 00:00:00 5.9 11 Oeste 24 Oeste 0 -- -- 92